sim
Sign-in with your pilot id or email,
or register
Callsign
Passwort

Schedule Details

Flight Number: DLH1813
Departure: Barcelona El Prat Airport (LEBL) at 14:45
Arrival: Munich Airport (EDDM) at 16:45
Route: Lufthansa Passenger Schedule. Enter filed route here before submitting Pirep.

Weather Information
Getting current METAR information for LEBL 201600Z 22012KT 9999 FEW025 26/17 Q1014 NOSIG
Getting current METAR information for EDDM 201620Z 04004KT CAVOK 21/11 Q1015 NOSIG

Schedule Frequency

Route Map